createdAt,value
2018-07-02T00:01:42.440Z,23.62
2018-07-02T00:03:47.667Z,23.59
2018-07-02T00:06:09.774Z,23.56
2018-07-02T00:08:15.104Z,23.52
2018-07-02T00:10:20.459Z,23.50
2018-07-02T00:12:26.074Z,23.46
2018-07-02T00:14:31.610Z,23.42
2018-07-02T00:16:36.948Z,23.38
2018-07-02T00:18:42.266Z,23.33
2018-07-02T00:20:47.549Z,23.29
2018-07-02T00:22:52.860Z,23.24
2018-07-02T00:24:58.167Z,23.21
2018-07-02T00:27:03.427Z,23.17
2018-07-02T00:29:08.754Z,23.14
2018-07-02T00:31:14.059Z,23.11
2018-07-02T00:33:19.424Z,23.09
2018-07-02T00:35:24.690Z,23.05
2018-07-02T00:37:30.010Z,23.05
2018-07-02T00:39:35.327Z,23.03
2018-07-02T00:41:41.211Z,23.00
2018-07-02T00:43:46.503Z,22.97
2018-07-02T00:45:51.775Z,22.92
2018-07-02T00:47:57.129Z,22.86
2018-07-02T00:50:02.463Z,22.83
2018-07-02T00:52:07.926Z,22.81
2018-07-02T00:54:13.359Z,22.77
2018-07-02T00:56:18.652Z,22.75
2018-07-02T00:58:24.018Z,22.73
2018-07-02T01:00:29.308Z,22.71
2018-07-02T01:02:34.691Z,22.70
2018-07-02T01:04:40.010Z,22.68
2018-07-02T01:06:45.388Z,22.68
2018-07-02T01:08:50.768Z,22.66
2018-07-02T01:13:00.175Z,22.60
2018-07-02T01:15:05.716Z,22.58
2018-07-02T01:17:11.018Z,22.57
2018-07-02T01:19:16.309Z,22.55
2018-07-02T01:21:21.592Z,22.56
2018-07-02T01:23:26.870Z,22.55
2018-07-02T01:25:32.175Z,22.52
2018-07-02T01:27:37.466Z,22.47
2018-07-02T01:29:42.779Z,22.42
2018-07-02T01:31:48.105Z,22.38
2018-07-02T01:33:53.041Z,22.36
2018-07-02T01:35:58.446Z,22.35
2018-07-02T01:38:03.800Z,22.34
2018-07-02T01:40:08.799Z,22.33
2018-07-02T01:42:14.060Z,22.32
2018-07-02T01:44:19.385Z,22.29
2018-07-02T01:46:24.707Z,22.27
2018-07-02T01:48:29.996Z,22.23
2018-07-02T01:50:35.252Z,22.20
2018-07-02T01:52:40.556Z,22.16
2018-07-02T01:54:45.928Z,22.13
2018-07-02T01:56:51.581Z,22.11
2018-07-02T01:58:56.900Z,22.10
2018-07-02T02:01:02.204Z,22.09
2018-07-02T02:03:07.544Z,22.08
2018-07-02T02:05:12.837Z,22.09
2018-07-02T02:07:18.155Z,22.09
2018-07-02T02:09:23.488Z,22.08
2018-07-02T02:11:28.782Z,22.06
2018-07-02T02:13:34.094Z,22.04
2018-07-02T02:15:39.366Z,22.03
2018-07-02T02:17:44.675Z,22.00
2018-07-02T02:19:49.986Z,21.99
2018-07-02T02:21:55.271Z,21.97
2018-07-02T02:24:00.888Z,21.98
2018-07-02T02:26:06.606Z,21.96
2018-07-02T02:28:11.905Z,21.94
2018-07-02T02:30:17.254Z,21.91
2018-07-02T02:32:22.555Z,21.88
2018-07-02T02:34:27.819Z,21.84
2018-07-02T02:36:33.140Z,21.83
2018-07-02T02:38:38.452Z,21.82
2018-07-02T02:40:43.777Z,21.81
2018-07-02T02:42:49.051Z,21.81
2018-07-02T02:44:54.360Z,21.78
2018-07-02T02:47:00.416Z,21.73
2018-07-02T02:49:06.098Z,21.70
2018-07-02T02:51:11.464Z,21.69
2018-07-02T02:53:16.734Z,21.66
2018-07-02T02:55:22.072Z,21.64
2018-07-02T02:57:27.140Z,21.61
2018-07-02T02:59:32.364Z,21.60
2018-07-02T03:01:37.664Z,21.58
2018-07-02T03:03:43.013Z,21.58
2018-07-02T03:05:48.371Z,21.55
2018-07-02T03:07:53.686Z,21.52
2018-07-02T03:09:58.964Z,21.50
2018-07-02T03:12:04.253Z,21.45
2018-07-02T03:14:09.262Z,21.43
2018-07-02T03:16:14.522Z,21.41
2018-07-02T03:18:19.836Z,21.40
2018-07-02T03:20:25.210Z,21.36
2018-07-02T03:22:30.484Z,21.32
2018-07-02T03:24:35.791Z,21.30
2018-07-02T03:26:41.207Z,21.28
2018-07-02T03:28:46.466Z,21.23
2018-07-02T03:30:51.770Z,21.19
2018-07-02T03:32:57.076Z,21.17
2018-07-02T03:35:02.364Z,21.14
2018-07-02T03:37:07.718Z,21.13
2018-07-02T03:39:13.548Z,21.13
2018-07-02T03:41:18.866Z,21.12
2018-07-02T03:43:24.246Z,21.11
2018-07-02T03:45:29.592Z,21.10
2018-07-02T03:47:34.924Z,21.06
2018-07-02T03:49:40.124Z,21.04
2018-07-02T03:51:45.035Z,20.99
2018-07-02T03:53:50.360Z,20.99
2018-07-02T03:55:56.573Z,20.96
2018-07-02T03:58:01.603Z,20.95
2018-07-02T04:00:06.916Z,20.94
2018-07-02T04:02:12.279Z,20.93
2018-07-02T04:04:17.574Z,20.92
2018-07-02T04:06:23.129Z,20.93
2018-07-02T04:08:28.527Z,20.93
2018-07-02T04:10:33.863Z,20.94
2018-07-02T04:12:39.235Z,20.93
2018-07-02T04:14:44.561Z,20.93
2018-07-02T04:16:49.874Z,20.91
2018-07-02T04:19:02.662Z,20.89
2018-07-02T04:21:07.971Z,20.87
2018-07-02T04:23:13.264Z,20.84
2018-07-02T04:25:18.606Z,20.81
2018-07-02T04:27:23.890Z,20.80
2018-07-02T04:29:29.227Z,20.81
2018-07-02T04:31:34.624Z,20.80
2018-07-02T04:33:40.046Z,20.77
2018-07-02T04:35:45.523Z,20.75
2018-07-02T04:37:51.177Z,20.73
2018-07-02T04:39:56.703Z,20.73
2018-07-02T04:42:02.085Z,20.73
2018-07-02T04:44:07.919Z,20.73
2018-07-02T04:46:19.900Z,20.73
2018-07-02T04:48:25.197Z,20.73
2018-07-02T04:50:30.962Z,20.73
2018-07-02T04:52:36.254Z,20.74
2018-07-02T04:54:42.198Z,20.75
2018-07-02T04:56:47.535Z,20.76
2018-07-02T04:58:52.854Z,20.80
2018-07-02T05:00:58.168Z,20.86
2018-07-02T05:03:03.509Z,20.87
2018-07-02T05:05:08.840Z,20.90
2018-07-02T05:07:14.161Z,20.94
2018-07-02T05:09:19.523Z,20.96
2018-07-02T05:11:24.846Z,20.97
2018-07-02T05:13:30.346Z,20.98
2018-07-02T05:15:35.645Z,20.97
2018-07-02T05:17:40.934Z,20.96
2018-07-02T05:19:46.245Z,20.97
2018-07-02T05:21:51.556Z,21.00
2018-07-02T05:23:56.883Z,21.02
2018-07-02T05:26:02.299Z,21.03
2018-07-02T05:28:07.581Z,21.08
2018-07-02T05:30:12.874Z,21.13
2018-07-02T05:32:18.173Z,21.19
2018-07-02T05:34:23.478Z,21.23
2018-07-02T05:36:28.819Z,21.25
2018-07-02T05:38:34.387Z,21.30
2018-07-02T05:40:39.677Z,21.35
2018-07-02T05:42:45.013Z,21.37
2018-07-02T05:44:50.339Z,21.38
2018-07-02T05:46:55.675Z,21.42
2018-07-02T05:49:01.174Z,21.45
2018-07-02T05:51:06.577Z,21.45
2018-07-02T05:53:11.627Z,21.49
2018-07-02T05:55:16.817Z,21.52
2018-07-02T05:57:22.146Z,21.55
2018-07-02T05:59:27.496Z,21.59
2018-07-02T06:01:32.817Z,21.62
2018-07-02T06:03:38.146Z,21.66
2018-07-02T06:05:43.489Z,21.70
2018-07-02T06:07:49.040Z,21.73
2018-07-02T06:09:54.373Z,21.79
2018-07-02T06:11:59.771Z,21.92
2018-07-02T06:14:05.605Z,22.32
2018-07-02T06:16:10.959Z,23.01
2018-07-02T06:18:15.952Z,23.85
2018-07-02T06:20:21.182Z,24.75
2018-07-02T06:22:26.549Z,25.62
2018-07-02T06:24:31.865Z,26.51
2018-07-02T06:26:37.199Z,27.38
2018-07-02T06:28:42.546Z,28.16
2018-07-02T06:30:47.946Z,28.77
2018-07-02T06:32:53.496Z,29.32
2018-07-02T06:34:58.843Z,29.96
2018-07-02T06:37:04.172Z,30.59
2018-07-02T06:39:11.046Z,31.25
2018-07-02T06:41:16.531Z,31.86
2018-07-02T06:43:21.968Z,32.37
2018-07-02T06:45:27.323Z,32.84
2018-07-02T06:47:32.770Z,33.26
2018-07-02T06:49:38.092Z,33.62
2018-07-02T06:51:43.503Z,33.99
2018-07-02T06:53:48.822Z,34.42
2018-07-02T06:55:54.163Z,34.72
2018-07-02T06:57:59.616Z,35.01
2018-07-02T07:00:06.447Z,35.42
2018-07-02T07:02:11.844Z,35.74
2018-07-02T07:04:17.140Z,35.96
2018-07-02T07:06:22.640Z,36.09
2018-07-02T07:08:27.974Z,36.20
2018-07-02T07:10:33.324Z,36.36
2018-07-02T07:12:38.644Z,36.51
2018-07-02T07:14:43.958Z,36.65
2018-07-02T07:16:49.319Z,36.77
2018-07-02T07:18:54.611Z,36.85
2018-07-02T07:20:59.916Z,36.98
2018-07-02T07:23:05.511Z,37.02
2018-07-02T07:25:10.783Z,37.07
2018-07-02T07:27:16.127Z,37.10
2018-07-02T07:29:21.476Z,37.10
2018-07-02T07:31:26.851Z,37.00
2018-07-02T07:33:32.352Z,36.89
2018-07-02T07:35:37.680Z,36.81
2018-07-02T07:37:43.064Z,36.68
2018-07-02T07:39:48.445Z,36.59
2018-07-02T07:41:53.796Z,36.48
2018-07-02T07:43:59.224Z,36.25
2018-07-02T07:46:05.599Z,35.79
2018-07-02T07:48:10.919Z,35.20
2018-07-02T07:50:16.352Z,34.52
2018-07-02T07:52:21.739Z,33.85
2018-07-02T07:54:27.078Z,33.23
2018-07-02T07:56:32.494Z,32.57
2018-07-02T07:58:37.828Z,31.98
2018-07-02T08:00:43.286Z,31.50
2018-07-02T08:02:48.885Z,31.10
2018-07-02T08:04:54.212Z,30.77
2018-07-02T08:06:59.602Z,30.46
2018-07-02T08:09:07.698Z,30.14
2018-07-02T08:11:13.177Z,29.81
2018-07-02T08:13:18.675Z,29.50
2018-07-02T08:15:24.010Z,29.21
2018-07-02T08:17:29.395Z,28.93
2018-07-02T08:19:34.776Z,28.66
2018-07-02T08:21:41.224Z,28.54
2018-07-02T08:23:46.564Z,28.39
2018-07-02T08:25:51.957Z,28.29
2018-07-02T08:27:57.327Z,28.17
2018-07-02T08:30:02.696Z,28.07
2018-07-02T08:32:08.069Z,27.99
2018-07-02T08:34:13.486Z,27.93
2018-07-02T08:36:19.358Z,27.87
2018-07-02T08:38:24.729Z,27.83
2018-07-02T08:40:30.102Z,27.79
2018-07-02T08:42:35.602Z,27.74
2018-07-02T08:44:41.037Z,27.70
2018-07-02T08:46:46.590Z,27.68
2018-07-02T08:48:52.036Z,27.64
2018-07-02T08:50:57.339Z,27.57
2018-07-02T08:53:02.750Z,27.52
2018-07-02T08:55:08.169Z,27.46
2018-07-02T08:57:13.459Z,27.45
2018-07-02T08:59:18.765Z,27.43
2018-07-02T09:01:24.142Z,27.43
2018-07-02T09:03:29.527Z,27.43
2018-07-02T09:05:35.131Z,27.48
2018-07-02T09:07:40.516Z,27.52
2018-07-02T09:09:45.684Z,27.54
2018-07-02T09:11:51.546Z,27.55
2018-07-02T09:13:56.877Z,27.55
2018-07-02T09:16:02.239Z,27.58
2018-07-02T09:18:07.576Z,27.62
2018-07-02T09:20:13.012Z,27.67
2018-07-02T09:22:18.463Z,27.70
2018-07-02T09:24:23.832Z,27.73
2018-07-02T09:26:29.233Z,27.75
2018-07-02T09:28:34.610Z,27.79
2018-07-02T09:30:39.980Z,27.84
2018-07-02T09:32:45.323Z,27.88
2018-07-02T09:34:50.638Z,27.89
2018-07-02T09:36:56.011Z,27.90
2018-07-02T09:39:01.335Z,27.93
2018-07-02T09:41:06.687Z,27.95
2018-07-02T09:43:12.044Z,27.98
2018-07-02T09:45:17.683Z,27.97
2018-07-02T09:47:23.038Z,28.00
2018-07-02T09:49:28.441Z,28.01
2018-07-02T09:51:34.115Z,28.04
2018-07-02T09:53:39.548Z,28.06
2018-07-02T09:55:44.910Z,28.10
2018-07-02T09:57:50.488Z,28.17
2018-07-02T09:59:55.965Z,28.20
2018-07-02T10:02:01.526Z,28.26
2018-07-02T10:04:06.855Z,28.29
2018-07-02T10:06:12.173Z,28.32
2018-07-02T10:08:17.640Z,28.34
2018-07-02T10:10:22.977Z,28.35
2018-07-02T10:12:28.501Z,28.37
2018-07-02T10:14:33.822Z,28.39
2018-07-02T10:16:39.140Z,28.42
2018-07-02T10:18:44.492Z,28.45
2018-07-02T10:20:49.866Z,28.46
2018-07-02T10:22:55.236Z,28.48
2018-07-02T10:25:00.560Z,28.49
2018-07-02T10:27:06.156Z,28.52
2018-07-02T10:29:11.590Z,28.55
2018-07-02T10:31:16.967Z,28.56
2018-07-02T10:33:22.363Z,28.59
2018-07-02T10:35:27.753Z,28.61
2018-07-02T10:37:33.099Z,28.64
2018-07-02T10:39:38.518Z,28.69
2018-07-02T10:41:43.871Z,28.72
2018-07-02T10:43:49.319Z,28.75
2018-07-02T10:45:54.648Z,28.80
2018-07-02T10:48:00.035Z,28.83
2018-07-02T10:50:05.473Z,28.83
2018-07-02T10:52:10.814Z,28.86
2018-07-02T10:54:16.185Z,28.89
2018-07-02T10:56:21.575Z,28.92
2018-07-02T10:58:26.902Z,28.93
2018-07-02T11:00:32.197Z,28.94
2018-07-02T11:02:37.592Z,28.97
2018-07-02T11:04:42.895Z,29.00
2018-07-02T11:06:48.219Z,29.02
2018-07-02T11:08:53.577Z,29.04
2018-07-02T11:10:58.911Z,29.09
2018-07-02T11:13:10.233Z,29.11
2018-07-02T11:15:15.580Z,29.15
2018-07-02T11:17:20.650Z,29.19
2018-07-02T11:19:25.945Z,29.20
2018-07-02T11:21:30.978Z,29.23
2018-07-02T11:23:36.252Z,29.25
2018-07-02T11:25:41.966Z,29.27
2018-07-02T11:27:47.282Z,29.29
2018-07-02T11:29:52.640Z,29.31
2018-07-02T11:31:58.112Z,29.36
2018-07-02T11:34:03.573Z,29.37
2018-07-02T11:36:08.925Z,29.39
2018-07-02T11:38:14.290Z,29.42
2018-07-02T11:40:19.757Z,29.44
2018-07-02T11:42:25.267Z,29.47
2018-07-02T11:44:31.960Z,29.50
2018-07-02T11:46:37.290Z,29.52
2018-07-02T11:48:43.029Z,29.54
2018-07-02T11:50:48.579Z,29.56
2018-07-02T11:52:54.366Z,29.59
2018-07-02T11:54:59.410Z,29.61
2018-07-02T11:57:04.724Z,29.63
2018-07-02T11:59:09.841Z,29.64
2018-07-02T12:01:15.131Z,29.67
2018-07-02T12:03:20.493Z,29.68
2018-07-02T12:05:25.906Z,29.71
2018-07-02T12:07:31.222Z,29.71
2018-07-02T12:09:36.700Z,29.74
2018-07-02T12:11:42.532Z,29.74
2018-07-02T12:13:47.889Z,29.76
2018-07-02T12:15:53.223Z,29.80
2018-07-02T12:17:58.571Z,29.81
2018-07-02T12:20:04.528Z,29.84
2018-07-02T12:22:09.894Z,29.85
2018-07-02T12:24:15.241Z,29.86
2018-07-02T12:26:20.557Z,29.88
2018-07-02T12:28:25.927Z,29.90
2018-07-02T12:30:31.346Z,29.92
2018-07-02T12:32:39.638Z,29.95
2018-07-02T12:34:45.200Z,29.92
2018-07-02T12:36:54.109Z,29.92
2018-07-02T12:38:59.432Z,29.96
2018-07-02T12:41:04.817Z,29.99
2018-07-02T12:43:10.218Z,30.03
2018-07-02T12:45:15.612Z,30.08
2018-07-02T12:47:20.997Z,30.11
2018-07-02T12:49:26.367Z,30.13
2018-07-02T12:51:31.812Z,30.19
2018-07-02T12:53:37.193Z,30.22
2018-07-02T12:55:42.488Z,30.27
2018-07-02T12:57:47.916Z,30.31
2018-07-02T12:59:53.239Z,30.37
2018-07-02T13:01:59.508Z,30.40
2018-07-02T13:04:04.957Z,30.43
2018-07-02T13:06:10.447Z,30.46
2018-07-02T13:08:15.950Z,30.49
2018-07-02T13:10:21.334Z,30.52
2018-07-02T13:12:26.620Z,30.52
2018-07-02T13:14:31.953Z,30.51
2018-07-02T13:16:37.674Z,30.53
2018-07-02T13:18:43.108Z,30.54
2018-07-02T13:20:48.515Z,30.56
2018-07-02T13:22:53.831Z,30.56
2018-07-02T13:24:59.175Z,30.55
2018-07-02T13:27:04.607Z,30.57
2018-07-02T13:29:10.090Z,30.62
2018-07-02T13:31:15.499Z,30.65
2018-07-02T13:33:20.901Z,30.69
2018-07-02T13:35:26.276Z,30.71
2018-07-02T13:37:31.661Z,30.77
2018-07-02T13:39:37.143Z,30.80
2018-07-02T13:41:42.593Z,30.84
2018-07-02T13:43:47.890Z,30.87
2018-07-02T13:45:53.283Z,30.89
2018-07-02T13:47:58.348Z,30.92
2018-07-02T13:50:03.689Z,30.95
2018-07-02T13:52:09.065Z,30.98
2018-07-02T13:54:14.562Z,31.02
2018-07-02T13:56:19.912Z,31.06
2018-07-02T13:58:25.380Z,31.08
2018-07-02T14:00:30.795Z,31.08
2018-07-02T14:02:36.194Z,31.09
2018-07-02T14:04:41.636Z,31.10
2018-07-02T14:06:47.061Z,31.11
2018-07-02T14:08:52.452Z,31.12
2018-07-02T14:10:57.784Z,31.12
2018-07-02T14:13:03.184Z,31.13
2018-07-02T14:15:09.613Z,31.16
2018-07-02T14:17:14.972Z,31.17
2018-07-02T14:19:20.378Z,31.16
2018-07-02T14:21:25.733Z,31.16
2018-07-02T14:23:31.181Z,31.19
2018-07-02T14:25:36.555Z,31.21
2018-07-02T14:27:41.880Z,31.23
2018-07-02T14:29:47.291Z,31.26
2018-07-02T14:31:52.641Z,31.30
2018-07-02T14:33:58.282Z,31.33
2018-07-02T14:36:04.028Z,31.35
2018-07-02T14:38:09.398Z,31.41
2018-07-02T14:40:14.760Z,31.46
2018-07-02T14:42:20.309Z,31.49
2018-07-02T14:44:25.740Z,31.53
2018-07-02T14:46:31.081Z,31.54
2018-07-02T14:48:36.393Z,31.56
2018-07-02T14:50:41.765Z,31.58
2018-07-02T14:52:47.189Z,31.60
2018-07-02T14:54:52.685Z,31.63
2018-07-02T14:56:58.269Z,31.65
2018-07-02T14:59:03.847Z,31.68
2018-07-02T15:01:09.372Z,31.71
2018-07-02T15:03:14.724Z,31.73
2018-07-02T15:05:19.755Z,31.72
2018-07-02T15:07:25.203Z,31.74
2018-07-02T15:09:30.712Z,31.78
2018-07-02T15:11:38.809Z,31.80
2018-07-02T15:13:44.171Z,31.81
2018-07-02T15:15:49.553Z,31.83
2018-07-02T15:17:54.951Z,31.83
2018-07-02T15:20:00.319Z,31.85
2018-07-02T15:22:05.746Z,31.86
2018-07-02T15:24:11.202Z,31.86
2018-07-02T15:26:16.592Z,31.85
2018-07-02T15:28:22.023Z,31.85
2018-07-02T15:30:27.440Z,31.86
2018-07-02T15:32:32.911Z,31.87
2018-07-02T15:34:38.273Z,31.90
2018-07-02T15:36:43.695Z,31.91
2018-07-02T15:38:49.064Z,31.92
2018-07-02T15:40:54.430Z,31.94
2018-07-02T15:42:59.776Z,31.96
2018-07-02T15:45:05.208Z,31.98
2018-07-02T15:47:10.660Z,31.98
2018-07-02T15:49:16.054Z,32.01
2018-07-02T15:51:21.579Z,32.01
2018-07-02T15:53:26.973Z,32.03
2018-07-02T15:55:32.468Z,32.04
2018-07-02T15:57:37.909Z,32.05
2018-07-02T15:59:43.321Z,32.01
2018-07-02T16:01:48.658Z,32.04
2018-07-02T16:03:53.981Z,32.04
2018-07-02T16:05:59.351Z,32.02
2018-07-02T16:08:04.855Z,32.04
2018-07-02T16:10:10.283Z,32.05
2018-07-02T16:12:15.990Z,32.06
2018-07-02T16:14:21.379Z,32.07
2018-07-02T16:16:26.733Z,32.07
2018-07-02T16:18:32.119Z,32.09
2018-07-02T16:20:37.512Z,32.10
2018-07-02T16:22:42.915Z,32.09
2018-07-02T16:24:48.283Z,32.10
2018-07-02T16:26:53.616Z,32.10
2018-07-02T16:28:59.006Z,32.10
2018-07-02T16:31:04.432Z,32.12
2018-07-02T16:33:10.032Z,32.12
2018-07-02T16:35:15.453Z,32.13
2018-07-02T16:37:20.967Z,32.13
2018-07-02T16:39:26.302Z,32.11
2018-07-02T16:41:31.732Z,32.08
2018-07-02T16:43:37.247Z,32.09
2018-07-02T16:45:42.649Z,32.06
2018-07-02T16:47:48.140Z,32.05
2018-07-02T16:49:53.495Z,32.03
2018-07-02T16:51:58.959Z,31.99
2018-07-02T16:54:04.660Z,31.98
2018-07-02T16:56:10.203Z,31.98
2018-07-02T16:58:15.645Z,31.94
2018-07-02T17:00:21.015Z,31.94
2018-07-02T17:02:26.467Z,31.92
2018-07-02T17:04:31.837Z,31.91
2018-07-02T17:06:37.294Z,31.88
2018-07-02T17:08:42.718Z,31.86
2018-07-02T17:10:48.172Z,31.83
2018-07-02T17:12:53.566Z,31.80
2018-07-02T17:14:58.976Z,31.78
2018-07-02T17:17:04.369Z,31.76
2018-07-02T17:19:09.774Z,31.73
2018-07-02T17:21:15.144Z,31.73
2018-07-02T17:23:20.561Z,31.73
2018-07-02T17:25:27.099Z,31.75
2018-07-02T17:27:32.429Z,31.74
2018-07-02T17:29:37.828Z,31.73
2018-07-02T17:31:43.250Z,31.72
2018-07-02T17:33:48.654Z,31.69
2018-07-02T17:35:53.975Z,31.65
2018-07-02T17:37:59.365Z,31.64
2018-07-02T17:40:05.213Z,31.63
2018-07-02T17:42:10.548Z,31.60
2018-07-02T17:44:15.916Z,31.59
2018-07-02T17:46:21.249Z,31.56
2018-07-02T17:48:26.703Z,31.51
2018-07-02T17:50:32.150Z,31.49
2018-07-02T17:52:37.562Z,31.46
2018-07-02T17:54:43.976Z,31.43
2018-07-02T17:56:49.425Z,31.40
2018-07-02T17:58:54.832Z,31.34
2018-07-02T18:00:59.910Z,31.31
2018-07-02T18:03:05.319Z,31.28
2018-07-02T18:05:10.364Z,31.25
2018-07-02T18:07:15.734Z,31.23
2018-07-02T18:09:21.109Z,31.20
2018-07-02T18:11:26.622Z,31.17
2018-07-02T18:13:32.014Z,31.14
2018-07-02T18:15:37.044Z,31.12
2018-07-02T18:17:42.724Z,31.09
2018-07-02T18:19:48.133Z,31.05
2018-07-02T18:21:53.622Z,31.02
2018-07-02T18:23:59.126Z,30.97
2018-07-02T18:26:04.559Z,30.94
2018-07-02T18:28:09.995Z,30.89
2018-07-02T18:30:15.429Z,30.86
2018-07-02T18:32:20.540Z,30.85
2018-07-02T18:34:28.421Z,30.81
2018-07-02T18:36:33.864Z,30.78
2018-07-02T18:38:39.248Z,30.73
2018-07-02T18:40:44.685Z,30.68
2018-07-02T18:42:50.114Z,30.64
2018-07-02T18:44:55.607Z,30.60
2018-07-02T18:47:03.478Z,30.56
2018-07-02T18:49:10.391Z,30.53
2018-07-02T18:51:15.748Z,30.48
2018-07-02T18:53:21.198Z,30.45
2018-07-02T18:55:26.689Z,30.43
2018-07-02T18:57:32.105Z,30.38
2018-07-02T18:59:37.521Z,30.34
2018-07-02T19:01:42.906Z,30.29
2018-07-02T19:03:48.351Z,30.23
2018-07-02T19:05:53.821Z,30.19
2018-07-02T19:07:59.269Z,30.16
2018-07-02T19:10:05.690Z,30.12
2018-07-02T19:12:11.156Z,30.07
2018-07-02T19:14:21.247Z,30.03
2018-07-02T19:16:27.380Z,29.98
2018-07-02T19:18:32.791Z,29.93
2018-07-02T19:20:38.310Z,29.89
2018-07-02T19:22:43.644Z,29.85
2018-07-02T19:24:49.015Z,29.79
2018-07-02T19:26:54.523Z,29.76
2018-07-02T19:29:00.004Z,29.72
2018-07-02T19:31:05.458Z,29.69
2018-07-02T19:33:10.817Z,29.64
2018-07-02T19:35:16.246Z,29.61
2018-07-02T19:37:21.593Z,29.58
2018-07-02T19:39:26.996Z,29.54
2018-07-02T19:41:32.413Z,29.48
2018-07-02T19:43:37.493Z,29.45
2018-07-02T19:45:42.818Z,29.41
2018-07-02T19:47:48.201Z,29.37
2018-07-02T19:49:53.773Z,29.33
2018-07-02T19:51:59.233Z,29.30
2018-07-02T19:54:05.083Z,29.26
2018-07-02T19:56:10.503Z,29.22
2018-07-02T19:58:15.930Z,29.16
2018-07-02T20:00:21.339Z,29.11
2018-07-02T20:02:26.724Z,29.06
2018-07-02T20:04:32.285Z,29.00
2018-07-02T20:06:37.746Z,28.95
2018-07-02T20:08:43.123Z,28.89
2018-07-02T20:10:49.252Z,28.85
2018-07-02T20:12:54.684Z,28.80
2018-07-02T20:15:00.112Z,28.76
2018-07-02T20:17:05.862Z,28.73
2018-07-02T20:19:11.338Z,28.71
2018-07-02T20:21:16.817Z,28.69
2018-07-02T20:23:22.365Z,28.65
2018-07-02T20:25:27.773Z,28.63
2018-07-02T20:27:34.190Z,28.61
2018-07-02T20:29:39.914Z,28.58
2018-07-02T20:31:45.376Z,28.54
2018-07-02T20:33:50.688Z,28.48
2018-07-02T20:35:55.710Z,28.45
2018-07-02T20:38:01.159Z,28.43
2018-07-02T20:40:06.552Z,28.41
2018-07-02T20:42:12.017Z,28.40
2018-07-02T20:44:17.365Z,28.37
2018-07-02T20:46:22.783Z,28.34
2018-07-02T20:48:28.432Z,28.31
2018-07-02T20:50:33.815Z,28.27
2018-07-02T20:52:39.206Z,28.26
2018-07-02T20:54:44.511Z,28.24
2018-07-02T20:56:49.902Z,28.20
2018-07-02T20:58:55.507Z,28.18
2018-07-02T21:01:01.157Z,28.12
2018-07-02T21:03:06.537Z,28.08
2018-07-02T21:05:12.090Z,28.00
2018-07-02T21:07:17.416Z,27.96
2018-07-02T21:09:22.785Z,27.91
2018-07-02T21:11:28.182Z,27.86
2018-07-02T21:13:33.695Z,27.80
2018-07-02T21:15:39.112Z,27.74
2018-07-02T21:17:44.419Z,27.69
2018-07-02T21:19:49.856Z,27.65
2018-07-02T21:21:55.201Z,27.63
2018-07-02T21:24:00.578Z,27.60
2018-07-02T21:26:06.150Z,27.55
2018-07-02T21:28:11.468Z,27.50
2018-07-02T21:30:16.808Z,27.45
2018-07-02T21:32:22.175Z,27.41
2018-07-02T21:34:27.526Z,27.38
2018-07-02T21:36:33.092Z,27.34
2018-07-02T21:38:38.496Z,27.29
2018-07-02T21:40:43.875Z,27.25
2018-07-02T21:42:49.218Z,27.22
2018-07-02T21:44:54.601Z,27.08
2018-07-02T21:47:00.025Z,27.08
2018-07-02T21:49:05.512Z,27.01
2018-07-02T21:51:10.874Z,26.91
2018-07-02T21:53:16.252Z,26.85
2018-07-02T21:55:21.652Z,26.78
2018-07-02T21:57:27.030Z,26.71
2018-07-02T21:59:32.430Z,26.64
2018-07-02T22:01:37.886Z,26.59
2018-07-02T22:03:43.225Z,26.53
2018-07-02T22:05:48.334Z,26.47
2018-07-02T22:07:53.659Z,26.41
2018-07-02T22:09:59.000Z,26.35
2018-07-02T22:12:04.673Z,26.30
2018-07-02T22:14:09.698Z,26.26
2018-07-02T22:16:14.967Z,26.21
2018-07-02T22:18:20.367Z,26.19
2018-07-02T22:20:25.661Z,26.18
2018-07-02T22:22:30.972Z,26.17
2018-07-02T22:24:37.145Z,26.15
2018-07-02T22:26:42.499Z,26.13
2018-07-02T22:28:47.802Z,26.10
2018-07-02T22:30:53.724Z,26.04
2018-07-02T22:32:59.053Z,25.99
2018-07-02T22:35:04.658Z,25.95
2018-07-02T22:37:10.109Z,25.93
2018-07-02T22:39:16.447Z,25.92
2018-07-02T22:41:21.828Z,25.90
2018-07-02T22:43:27.203Z,25.88
2018-07-02T22:45:33.341Z,25.85
2018-07-02T22:47:38.710Z,25.82
2018-07-02T22:49:44.069Z,25.81
2018-07-02T22:51:49.348Z,25.80
2018-07-02T22:53:54.694Z,25.77
2018-07-02T22:56:03.524Z,25.69
2018-07-02T22:58:08.796Z,25.65
2018-07-02T23:00:15.773Z,25.60
2018-07-02T23:02:21.098Z,25.56
2018-07-02T23:04:26.406Z,25.51
2018-07-02T23:06:31.700Z,25.45
2018-07-02T23:08:37.031Z,25.41
2018-07-02T23:10:42.495Z,25.39
2018-07-02T23:12:47.531Z,25.36
2018-07-02T23:14:52.781Z,25.30
2018-07-02T23:16:58.091Z,25.27
2018-07-02T23:19:03.391Z,25.24
2018-07-02T23:21:08.747Z,25.25
2018-07-02T23:23:14.083Z,25.25
2018-07-02T23:25:19.436Z,25.25
2018-07-02T23:27:24.759Z,25.24
2018-07-02T23:29:30.112Z,25.21
2018-07-02T23:31:35.483Z,25.18
2018-07-02T23:33:40.826Z,25.12
2018-07-02T23:35:46.143Z,25.05
2018-07-02T23:37:52.347Z,25.01
2018-07-02T23:39:57.717Z,24.96
2018-07-02T23:42:03.093Z,24.93
2018-07-02T23:44:08.423Z,24.87
2018-07-02T23:46:13.780Z,24.80
2018-07-02T23:48:19.123Z,24.72
2018-07-02T23:50:24.662Z,24.63
2018-07-02T23:52:30.015Z,24.57
2018-07-02T23:54:35.402Z,24.51
2018-07-02T23:56:40.793Z,24.45
2018-07-02T23:58:46.118Z,24.39
